Time;durP1;ratioP1;P1;durP2;ratioP2;P2;SDS_P1;SDS_P2;PMS_P1;PMS_P2;Temp;Humidity;BMP_temperature;BMP_pressure;BME280_temperature;BME280_humidity;BME280_pressure;Samples;Min_cycle;Max_cycle;Signal;HPM_P1;HPM_P2
2024/04/01 00:02:23;;;;;;;;;;;9.60;99.90;;;;;;5078812;28;19920;-81
2024/04/01 00:04:49;;;;;;;;;;;9.50;99.90;;;;;;5062165;28;20289;-73
2024/04/01 00:07:15;;;;;;;;;;;9.50;99.90;;;;;;5081997;28;19924;-73
2024/04/01 00:09:40;;;;;;;;;;;9.40;99.90;;;;;;5086084;28;19928;-72
2024/04/01 00:12:07;;;;;;;;;;;9.30;99.90;;;;;;5072360;28;20481;-73
2024/04/01 00:14:33;;;;;;;;;;;9.20;99.90;;;;;;5090882;28;20583;-73
2024/04/01 00:16:58;;;;;;;;;;;9.10;99.90;;;;;;5087417;28;19975;-72
2024/04/01 00:19:24;;;;;;;;;;;9.10;99.90;;;;;;5089946;28;20010;-74
2024/04/01 00:21:50;;;;;;;;;;;9.10;99.90;;;;;;5088737;28;20006;-73
2024/04/01 00:24:15;;;;;;;;;;;9.00;99.90;;;;;;5088898;28;19924;-74
2024/04/01 00:26:41;;;;;;;;;;;9.00;99.90;;;;;;5086107;28;19916;-73
2024/04/01 00:29:07;;;;;;;;;;;9.00;99.90;;;;;;5073016;28;19915;-72
2024/04/01 00:31:32;;;;;;;;;;;9.00;99.90;;;;;;5075227;28;19922;-74
2024/04/01 00:33:58;;;;;;;;;;;8.90;99.90;;;;;;5089292;28;19920;-74
2024/04/01 00:36:25;;;;;;;;;;;9.00;99.90;;;;;;5058456;28;19916;-74
2024/04/01 00:38:50;;;;;;;;;;;8.90;99.90;;;;;;5086575;28;20023;-79
2024/04/01 00:41:16;;;;;;;;;;;8.90;99.90;;;;;;5089433;28;20012;-79
2024/04/01 00:43:42;;;;;;;;;;;8.90;99.90;;;;;;5074152;28;19916;-78
2024/04/01 00:46:08;;;;;;;;;;;8.90;99.90;;;;;;5090315;28;20385;-79
2024/04/01 00:48:34;;;;;;;;;;;8.80;99.90;;;;;;5088398;28;19960;-79
2024/04/01 00:51:00;;;;;;;;;;;8.80;99.90;;;;;;5073163;28;19924;-80
2024/04/01 00:53:25;;;;;;;;;;;8.70;99.90;;;;;;5068623;28;20014;-79
2024/04/01 00:55:51;;;;;;;;;;;8.80;99.90;;;;;;5069749;28;20384;-82
2024/04/01 00:58:17;;;;;;;;;;;8.80;99.90;;;;;;5088247;28;19916;-78
2024/04/01 01:00:45;;;;;;;;;;;8.90;99.90;;;;;;5090848;28;20340;-79
2024/04/01 01:03:11;;;;;;;;;;;9.00;99.90;;;;;;5070005;28;19993;-79
2024/04/01 01:05:37;;;;;;;;;;;9.10;99.90;;;;;;5070399;28;19920;-79
2024/04/01 01:08:04;;;;;;;;;;;9.20;99.90;;;;;;5068598;28;19959;-80
2024/04/01 01:10:31;;;;;;;;;;;9.20;99.90;;;;;;5064770;28;20356;-79
2024/04/01 01:12:57;;;;;;;;;;;9.30;99.90;;;;;;5088044;28;20288;-80
2024/04/01 01:15:24;;;;;;;;;;;9.20;99.90;;;;;;5089088;28;20334;-77
2024/04/01 01:17:49;;;;;;;;;;;9.20;99.90;;;;;;5067005;28;20547;-78
2024/04/01 01:20:15;;;;;;;;;;;9.20;99.90;;;;;;5090151;28;20043;-77
2024/04/01 01:22:41;;;;;;;;;;;9.20;99.90;;;;;;5037581;28;19920;-80
2024/04/01 01:25:07;;;;;;;;;;;9.20;99.90;;;;;;5065640;28;19916;-80
2024/04/01 01:27:36;;;;;;;;;;;9.10;99.90;;;;;;5068376;28;19924;-79
2024/04/01 01:30:14;;;;;;;;;;;9.00;99.90;;;;;;5086006;28;19942;-81
2024/04/01 01:32:47;;;;;;;;;;;8.90;99.90;;;;;;5086925;28;20428;-80
2024/04/01 01:35:14;;;;;;;;;;;8.90;99.90;;;;;;5088678;28;19923;-80
2024/04/01 01:37:39;;;;;;;;;;;8.80;99.90;;;;;;5063487;28;19928;-79
2024/04/01 01:40:05;;;;;;;;;;;8.70;99.90;;;;;;5082111;28;19923;-79
2024/04/01 01:42:34;;;;;;;;;;;8.60;99.90;;;;;;5075762;28;20057;-79
2024/04/01 01:45:01;;;;;;;;;;;8.50;99.90;;;;;;5083340;28;19916;-78
2024/04/01 01:47:26;;;;;;;;;;;8.40;99.90;;;;;;5067129;28;20419;-79
2024/04/01 01:49:52;;;;;;;;;;;8.30;99.90;;;;;;5071056;28;19920;-79
2024/04/01 01:52:17;;;;;;;;;;;8.20;99.90;;;;;;5065948;28;20385;-78
2024/04/01 01:54:43;;;;;;;;;;;8.20;99.90;;;;;;5085812;28;19971;-79
2024/04/01 01:57:08;;;;;;;;;;;8.10;99.90;;;;;;5067423;28;20136;-79
2024/04/01 01:59:34;;;;;;;;;;;8.00;99.90;;;;;;5085742;28;19920;-80
2024/04/01 02:01:59;;;;;;;;;;;8.00;99.90;;;;;;5087205;28;19920;-79
2024/04/01 02:04:25;;;;;;;;;;;7.90;99.90;;;;;;5051736;28;19936;-78
2024/04/01 02:06:51;;;;;;;;;;;7.90;99.90;;;;;;5070199;28;20345;-79
2024/04/01 02:09:16;;;;;;;;;;;7.90;99.90;;;;;;5087331;28;19970;-77
2024/04/01 02:11:42;;;;;;;;;;;7.90;99.90;;;;;;5070321;28;19920;-75
2024/04/01 02:14:07;;;;;;;;;;;7.80;99.90;;;;;;5086482;28;20273;-79
2024/04/01 02:16:33;;;;;;;;;;;7.80;99.90;;;;;;5086063;28;20003;-79
2024/04/01 02:18:58;;;;;;;;;;;7.80;99.90;;;;;;5080329;28;19935;-79
2024/04/01 02:21:24;;;;;;;;;;;7.80;99.90;;;;;;5084388;28;19923;-78
2024/04/01 02:23:50;;;;;;;;;;;7.70;99.90;;;;;;5051047;28;20380;-79
2024/04/01 02:26:15;;;;;;;;;;;7.70;99.90;;;;;;5063742;28;19920;-78
2024/04/01 02:28:41;;;;;;;;;;;7.60;99.90;;;;;;5028274;28;20369;-79
2024/04/01 02:31:07;;;;;;;;;;;7.60;99.90;;;;;;5083728;28;19916;-79
2024/04/01 02:33:32;;;;;;;;;;;7.60;99.90;;;;;;5084942;28;19927;-79
2024/04/01 02:35:58;;;;;;;;;;;7.60;99.90;;;;;;5072684;28;19924;-80
2024/04/01 02:38:23;;;;;;;;;;;7.60;99.90;;;;;;5091159;28;19920;-78
2024/04/01 02:40:49;;;;;;;;;;;7.60;99.90;;;;;;5093047;28;20014;-78
2024/04/01 02:43:14;;;;;;;;;;;7.60;99.90;;;;;;5081711;28;20427;-80
2024/04/01 02:45:40;;;;;;;;;;;7.60;99.90;;;;;;5092164;28;19916;-80
2024/04/01 02:48:06;;;;;;;;;;;7.60;99.90;;;;;;5068518;28;19946;-79
2024/04/01 02:50:32;;;;;;;;;;;7.60;99.90;;;;;;5085843;28;19924;-78
2024/04/01 02:52:58;;;;;;;;;;;7.50;99.90;;;;;;5082856;28;20424;-79
2024/04/01 02:55:23;;;;;;;;;;;7.60;99.90;;;;;;5065696;28;19924;-79
2024/04/01 02:57:49;;;;;;;;;;;7.50;99.90;;;;;;5084177;28;20426;-79
2024/04/01 03:00:17;;;;;;;;;;;7.50;99.90;;;;;;5086082;28;19938;-79
2024/04/01 03:02:44;;;;;;;;;;;7.50;99.90;;;;;;5069071;28;19959;-79
2024/04/01 03:05:10;;;;;;;;;;;7.50;99.90;;;;;;5086469;28;19977;-81
2024/04/01 03:07:35;;;;;;;;;;;7.50;99.90;;;;;;5086426;28;19928;-79
2024/04/01 03:10:01;;;;;;;;;;;7.50;99.90;;;;;;5065774;28;19916;-79
2024/04/01 03:12:26;;;;;;;;;;;7.50;99.90;;;;;;5085287;28;19920;-81
2024/04/01 03:14:52;;;;;;;;;;;7.40;99.90;;;;;;5063443;28;19920;-82
2024/04/01 03:17:19;;;;;;;;;;;7.50;99.90;;;;;;5086018;28;19935;-83
2024/04/01 03:19:45;;;;;;;;;;;7.40;99.90;;;;;;5087046;28;19916;-79
2024/04/01 03:22:10;;;;;;;;;;;7.40;99.90;;;;;;5065617;28;20289;-80
2024/04/01 03:24:36;;;;;;;;;;;7.40;99.90;;;;;;5064867;28;20343;-80
2024/04/01 03:27:02;;;;;;;;;;;7.40;99.90;;;;;;5064332;28;19915;-80
2024/04/01 03:29:27;;;;;;;;;;;7.40;99.90;;;;;;5081225;28;19916;-81
2024/04/01 03:31:56;;;;;;;;;;;7.40;99.90;;;;;;5083136;28;19959;-78
2024/04/01 03:34:21;;;;;;;;;;;7.80;99.90;;;;;;5066210;28;19963;-80
2024/04/01 03:36:49;;;;;;;;;;;7.30;99.90;;;;;;5083146;28;19954;-81
2024/04/01 03:39:14;;;;;;;;;;;7.40;99.90;;;;;;5064978;28;19959;-79
2024/04/01 03:41:40;;;;;;;;;;;7.40;99.90;;;;;;5065595;28;19962;-79
2024/04/01 03:44:05;;;;;;;;;;;7.40;99.90;;;;;;5033148;28;19924;-81
2024/04/01 03:46:31;;;;;;;;;;;7.70;99.90;;;;;;5069721;28;19930;-79
2024/04/01 03:48:57;;;;;;;;;;;7.60;99.90;;;;;;5086748;28;19973;-81
2024/04/01 03:51:22;;;;;;;;;;;7.30;99.90;;;;;;5050177;28;19969;-78
2024/04/01 03:53:48;;;;;;;;;;;7.30;99.90;;;;;;5086858;28;19920;-78
2024/04/01 03:56:14;;;;;;;;;;;7.30;99.90;;;;;;5083775;28;19920;-80
2024/04/01 03:58:39;;;;;;;;;;;7.40;99.90;;;;;;5069360;28;20262;-79
2024/04/01 04:01:05;;;;;;;;;;;7.30;99.90;;;;;;5068314;28;20003;-82
2024/04/01 04:03:30;;;;;;;;;;;7.30;99.90;;;;;;5069690;28;19919;-78
2024/04/01 04:05:56;;;;;;;;;;;7.30;99.90;;;;;;5087796;28;20370;-82
2024/04/01 04:08:22;;;;;;;;;;;7.40;99.90;;;;;;5069472;28;19920;-79
2024/04/01 04:10:47;;;;;;;;;;;7.40;99.90;;;;;;5078668;28;19947;-75
2024/04/01 04:13:14;;;;;;;;;;;7.40;99.90;;;;;;5081562;28;19969;-74
2024/04/01 04:15:40;;;;;;;;;;;7.40;99.90;;;;;;5081901;28;19949;-76
2024/04/01 04:18:05;;;;;;;;;;;7.40;99.90;;;;;;5064491;28;19924;-76
2024/04/01 04:20:31;;;;;;;;;;;7.30;99.90;;;;;;5061738;28;19966;-76
2024/04/01 04:22:57;;;;;;;;;;;7.30;99.90;;;;;;5059946;28;19939;-77
2024/04/01 04:25:22;;;;;;;;;;;7.30;99.90;;;;;;5080733;28;19931;-76
2024/04/01 04:27:48;;;;;;;;;;;7.30;99.90;;;;;;5067798;28;19928;-75
2024/04/01 04:30:13;;;;;;;;;;;7.20;99.90;;;;;;5082050;28;20323;-77
2024/04/01 04:32:40;;;;;;;;;;;7.20;99.90;;;;;;5066475;28;20011;-74
2024/04/01 04:35:08;;;;;;;;;;;7.20;99.90;;;;;;5067755;28;19943;-75
2024/04/01 04:37:37;;;;;;;;;;;7.20;99.90;;;;;;5082941;28;19946;-75
2024/04/01 04:40:03;;;;;;;;;;;7.30;99.90;;;;;;5067044;28;19927;-78
2024/04/01 04:42:32;;;;;;;;;;;7.30;99.90;;;;;;5085597;28;19920;-76
2024/04/01 04:44:58;;;;;;;;;;;7.30;99.90;;;;;;5067223;28;19961;-76
2024/04/01 04:47:23;;;;;;;;;;;7.40;99.90;;;;;;5086022;28;19928;-77
2024/04/01 04:49:49;;;;;;;;;;;7.30;99.90;;;;;;5069359;28;20420;-76
2024/04/01 04:52:14;;;;;;;;;;;7.60;99.90;;;;;;5081448;28;19970;-75
2024/04/01 04:54:40;;;;;;;;;;;7.30;99.90;;;;;;5084765;28;20324;-76
2024/04/01 04:57:05;;;;;;;;;;;7.20;99.90;;;;;;5079605;28;20037;-77
2024/04/01 04:59:33;;;;;;;;;;;7.20;99.90;;;;;;5070237;28;19924;-74
2024/04/01 05:02:06;;;;;;;;;;;7.10;99.90;;;;;;5062511;28;20305;-75
2024/04/01 05:04:35;;;;;;;;;;;7.10;99.90;;;;;;5066850;28;20015;-77
2024/04/01 05:07:01;;;;;;;;;;;7.10;99.90;;;;;;5070841;28;19923;-77
2024/04/01 05:09:26;;;;;;;;;;;7.10;99.90;;;;;;5090204;28;19930;-76
2024/04/01 05:11:53;;;;;;;;;;;7.10;99.90;;;;;;5088688;28;20010;-77
2024/04/01 05:14:21;;;;;;;;;;;7.00;99.90;;;;;;5069789;28;20206;-77
2024/04/01 05:16:47;;;;;;;;;;;7.00;99.90;;;;;;5081208;28;20022;-78
2024/04/01 05:19:13;;;;;;;;;;;7.10;99.90;;;;;;5013360;28;20342;-80
2024/04/01 05:21:39;;;;;;;;;;;7.00;99.90;;;;;;5044951;28;19935;-79
2024/04/01 05:24:04;;;;;;;;;;;7.00;99.90;;;;;;5048821;28;19916;-79
2024/04/01 05:26:30;;;;;;;;;;;7.00;99.90;;;;;;5044864;28;19932;-79
2024/04/01 05:28:57;;;;;;;;;;;7.70;99.90;;;;;;5029043;28;19921;-77
2024/04/01 05:31:23;;;;;;;;;;;7.00;99.90;;;;;;5044813;28;19973;-80
2024/04/01 05:33:50;;;;;;;;;;;7.00;99.90;;;;;;5058574;28;20355;-78
2024/04/01 05:36:17;;;;;;;;;;;7.00;99.90;;;;;;5049931;28;19920;-79
2024/04/01 05:38:43;;;;;;;;;;;7.00;99.90;;;;;;5050767;28;20439;-81
2024/04/01 05:41:08;;;;;;;;;;;7.00;99.90;;;;;;5049035;28;20015;-81
2024/04/01 05:43:34;;;;;;;;;;;7.10;99.90;;;;;;5046581;28;20393;-80
2024/04/01 05:46:00;;;;;;;;;;;7.10;99.90;;;;;;5054474;28;19972;-79
2024/04/01 05:48:25;;;;;;;;;;;6.50;99.90;;;;;;5050351;28;19929;-80
2024/04/01 05:50:51;;;;;;;;;;;7.10;99.90;;;;;;5048480;28;20346;-80
2024/04/01 05:53:17;;;;;;;;;;;7.20;99.90;;;;;;5049121;28;19951;-79
2024/04/01 05:55:42;;;;;;;;;;;7.30;99.90;;;;;;5048376;28;19924;-79
2024/04/01 05:58:08;;;;;;;;;;;7.30;99.90;;;;;;5045459;28;19966;-79
2024/04/01 06:00:34;;;;;;;;;;;7.30;99.90;;;;;;5053226;28;19916;-81
2024/04/01 06:03:00;;;;;;;;;;;7.40;99.90;;;;;;5052286;28;19917;-80
2024/04/01 06:05:26;;;;;;;;;;;7.40;99.90;;;;;;5050331;28;19924;-79
2024/04/01 06:07:52;;;;;;;;;;;7.40;99.90;;;;;;5075251;28;19924;-78
2024/04/01 06:10:17;;;;;;;;;;;7.40;99.90;;;;;;5048279;28;20286;-81
2024/04/01 06:12:43;;;;;;;;;;;7.50;99.90;;;;;;5049635;28;20370;-80
2024/04/01 06:15:08;;;;;;;;;;;7.50;99.90;;;;;;5045440;28;20385;-79
2024/04/01 06:17:34;;;;;;;;;;;7.50;99.90;;;;;;5054881;28;19928;-81
2024/04/01 06:20:00;;;;;;;;;;;8.10;99.90;;;;;;5068036;28;19922;-79
2024/04/01 06:22:27;;;;;;;;;;;7.60;99.90;;;;;;5067849;28;20329;-78
2024/04/01 06:24:52;;;;;;;;;;;7.70;99.90;;;;;;5066376;28;20034;-80
2024/04/01 06:27:18;;;;;;;;;;;7.70;99.90;;;;;;5082238;28;20025;-79
2024/04/01 06:29:44;;;;;;;;;;;7.80;99.90;;;;;;5064521;28;19921;-79
2024/04/01 06:32:09;;;;;;;;;;;7.90;99.90;;;;;;5064347;28;20271;-81
2024/04/01 06:34:38;;;;;;;;;;;7.90;99.90;;;;;;5065954;28;19946;-80
2024/04/01 06:37:03;;;;;;;;;;;7.90;99.90;;;;;;5068489;28;19920;-81
2024/04/01 06:39:29;;;;;;;;;;;8.00;99.90;;;;;;5064376;28;19925;-80
2024/04/01 06:41:55;;;;;;;;;;;8.00;99.90;;;;;;5064104;28;19928;-81
2024/04/01 06:44:26;;;;;;;;;;;8.10;99.90;;;;;;5069330;28;19981;-81
2024/04/01 06:46:52;;;;;;;;;;;8.10;99.90;;;;;;5064476;28;20402;-79
2024/04/01 06:49:18;;;;;;;;;;;8.20;99.90;;;;;;5066128;28;20055;-80
2024/04/01 06:51:43;;;;;;;;;;;8.20;99.90;;;;;;5061996;28;19920;-81
2024/04/01 06:54:09;;;;;;;;;;;8.30;99.90;;;;;;5064105;28;19928;-80
2024/04/01 06:56:34;;;;;;;;;;;8.30;99.90;;;;;;5066840;28;19920;-81
2024/04/01 06:59:00;;;;;;;;;;;8.40;99.90;;;;;;5067914;28;20400;-79
2024/04/01 07:01:26;;;;;;;;;;;8.50;99.90;;;;;;5065738;28;19916;-80
2024/04/01 07:03:51;;;;;;;;;;;8.50;99.90;;;;;;5065709;28;21147;-79
2024/04/01 07:06:18;;;;;;;;;;;8.60;99.90;;;;;;5062313;28;19956;-79
2024/04/01 07:08:43;;;;;;;;;;;8.80;99.90;;;;;;5082715;28;20417;-79
2024/04/01 07:11:09;;;;;;;;;;;8.90;99.90;;;;;;5064964;28;19924;-78
2024/04/01 07:13:34;;;;;;;;;;;9.00;99.90;;;;;;5063294;28;19981;-80
2024/04/01 07:16:00;;;;;;;;;;;9.30;99.90;;;;;;5066265;28;20015;-78
2024/04/01 07:18:28;;;;;;;;;;;9.30;99.90;;;;;;5079500;28;20010;-81
2024/04/01 07:20:54;;;;;;;;;;;9.50;99.90;;;;;;5066077;28;19916;-81
2024/04/01 07:23:19;;;;;;;;;;;9.50;99.90;;;;;;5066010;28;20393;-81
2024/04/01 07:25:51;;;;;;;;;;;9.60;99.90;;;;;;5059898;28;19932;-80
2024/04/01 07:28:16;;;;;;;;;;;9.70;99.90;;;;;;5063519;28;19928;-80
2024/04/01 07:30:42;;;;;;;;;;;8.00;99.90;;;;;;5058809;28;20418;-80
2024/04/01 07:33:08;;;;;;;;;;;9.80;99.90;;;;;;5068329;28;20413;-78
2024/04/01 07:35:34;;;;;;;;;;;9.90;99.90;;;;;;5065027;28;19976;-83
2024/04/01 07:37:59;;;;;;;;;;;9.90;99.90;;;;;;5053764;28;20039;-79
2024/04/01 07:40:26;;;;;;;;;;;10.00;99.90;;;;;;5059835;28;20309;-80
2024/04/01 07:42:51;;;;;;;;;;;10.10;99.90;;;;;;5068694;28;20332;-79
2024/04/01 07:45:17;;;;;;;;;;;10.10;99.90;;;;;;5067657;28;20007;-78
2024/04/01 07:47:42;;;;;;;;;;;10.20;99.90;;;;;;5074766;28;19966;-81
2024/04/01 07:50:08;;;;;;;;;;;10.20;99.90;;;;;;5067220;28;19927;-80
2024/04/01 07:52:35;;;;;;;;;;;10.20;99.90;;;;;;5072471;28;19932;-78
2024/04/01 07:55:01;;;;;;;;;;;10.30;99.90;;;;;;5065821;28;20561;-81
2024/04/01 07:57:32;;;;;;;;;;;10.30;99.90;;;;;;5070859;28;20406;-79
2024/04/01 07:59:58;;;;;;;;;;;10.30;99.90;;;;;;5048635;28;20423;-82
2024/04/01 08:02:25;;;;;;;;;;;10.30;99.90;;;;;;5066211;28;19944;-82
2024/04/01 08:04:51;;;;;;;;;;;10.30;99.90;;;;;;5068706;28;19916;-80
2024/04/01 08:07:16;;;;;;;;;;;10.30;99.90;;;;;;5068019;28;19926;-80
2024/04/01 08:09:42;;;;;;;;;;;10.30;99.90;;;;;;5068737;28;20361;-79
2024/04/01 08:12:08;;;;;;;;;;;10.40;99.90;;;;;;5067953;28;19927;-80
2024/04/01 08:14:34;;;;;;;;;;;10.50;99.90;;;;;;5074344;28;19916;-79
2024/04/01 08:17:00;;;;;;;;;;;10.60;99.90;;;;;;5056114;28;19923;-80
2024/04/01 08:19:27;;;;;;;;;;;10.60;99.90;;;;;;5086960;28;19923;-79
2024/04/01 08:21:53;;;;;;;;;;;10.70;99.90;;;;;;5088916;28;19973;-80
2024/04/01 08:24:18;;;;;;;;;;;10.70;99.90;;;;;;5054550;28;19946;-80
2024/04/01 08:26:44;;;;;;;;;;;10.70;99.90;;;;;;5057092;28;19952;-79
2024/04/01 08:29:10;;;;;;;;;;;10.80;99.90;;;;;;5072315;28;20019;-80
2024/04/01 08:31:35;;;;;;;;;;;10.80;99.90;;;;;;5057978;28;19924;-79
2024/04/01 08:34:01;;;;;;;;;;;10.90;99.90;;;;;;5090389;28;19920;-81
2024/04/01 08:36:26;;;;;;;;;;;10.90;99.90;;;;;;5055837;28;20006;-74
2024/04/01 08:38:53;;;;;;;;;;;10.90;99.90;;;;;;5074546;28;19919;-79
2024/04/01 08:41:32;;;;;;;;;;;10.90;99.90;;;;;;5093324;28;20286;-78
2024/04/01 08:44:11;;;;;;;;;;;10.90;99.90;;;;;;5079305;28;19916;-78
2024/04/01 08:46:42;;;;;;;;;;;10.90;99.90;;;;;;5073213;28;19951;-78
2024/04/01 08:51:10;;;;;;;0.55;0.55;;;12.60;99.90;;;;;;5125097;27;20424;-78
2024/04/01 08:53:54;;;;;;;;;;;10.90;99.90;;;;;;5110239;28;20092;-78
2024/04/01 08:56:20;;;;;;;0.60;0.60;;;11.00;99.90;;;;;;5111369;28;20365;-78
2024/04/01 08:58:46;;;;;;;0.63;0.63;;;11.10;99.90;;;;;;5113271;28;20031;-79
2024/04/01 09:01:12;;;;;;;0.40;0.40;;;11.10;99.90;;;;;;5120099;28;20422;-79
2024/04/01 09:03:37;;;;;;;0.77;0.77;;;11.10;99.90;;;;;;5114655;28;20095;-79
2024/04/01 09:06:04;;;;;;;0.85;0.65;;;11.20;99.90;;;;;;5106005;28;20082;-77
2024/04/01 09:08:30;;;;;;;0.88;0.77;;;11.20;99.90;;;;;;5103800;28;20085;-79
2024/04/01 09:10:56;;;;;;;0.43;0.43;;;11.30;99.90;;;;;;5105137;28;20511;-80
2024/04/01 09:13:22;;;;;;;1.80;1.70;;;11.30;99.90;;;;;;5104299;28;20040;-79
2024/04/01 09:15:49;;;;;;;1.67;0.90;;;11.30;99.90;;;;;;5105013;28;20035;-78
2024/04/01 09:18:15;;;;;;;1.05;0.95;;;11.30;99.90;;;;;;5087694;28;20393;-79
2024/04/01 09:20:42;;;;;;;0.70;0.70;;;11.40;99.90;;;;;;5107997;28;20051;-79
2024/04/01 09:23:08;;;;;;;1.58;1.17;;;11.40;99.90;;;;;;5091420;28;20046;-81
2024/04/01 09:25:34;;;;;;;8.25;3.83;;;11.30;99.90;;;;;;5105118;28;20079;-77
2024/04/01 09:28:00;;;;;;;2.47;2.28;;;11.30;99.90;;;;;;5073421;28;20172;-79
2024/04/01 09:30:26;;;;;;;1.52;1.42;;;11.20;99.90;;;;;;5103500;28;20050;-79
2024/04/01 09:32:52;;;;;;;2.05;1.48;;;11.10;99.90;;;;;;5105839;28;20036;-79
2024/04/01 09:35:18;;;;;;;0.60;0.60;;;11.10;99.90;;;;;;5105019;28;20477;-79
2024/04/01 09:37:44;;;;;;;1.88;1.77;;;11.00;99.90;;;;;;5105251;28;20032;-80
2024/04/01 09:40:10;;;;;;;1.25;1.20;;;11.00;99.90;;;;;;5103631;28;20051;-79
2024/04/01 09:42:36;;;;;;;;;;;11.00;99.90;;;;;;5102650;28;20220;-80
2024/04/01 09:45:04;;;;;;;1.45;1.17;;;10.90;99.90;;;;;;5103375;28;19920;-78
2024/04/01 09:47:31;;;;;;;0.70;0.70;;;10.90;99.90;;;;;;5103666;28;20058;-80
2024/04/01 09:50:00;;;;;;;1.63;1.52;;;10.90;99.90;;;;;;5086486;28;20127;-79
2024/04/01 09:52:25;;;;;;;1.75;1.65;;;10.90;99.90;;;;;;5102722;28;20073;-79
2024/04/01 09:55:00;;;;;;;0.77;0.77;;;10.90;99.90;;;;;;5104507;28;20039;-79
2024/04/01 09:57:38;;;;;;;1.15;1.05;;;10.90;99.90;;;;;;5081407;28;20036;-80
2024/04/01 10:00:16;;;;;;;0.60;0.60;;;11.00;99.90;;;;;;5105078;28;20042;-80
2024/04/01 10:03:00;;;;;;;0.80;0.80;;;11.00;99.90;;;;;;5100255;28;20044;-80
2024/04/01 10:06:01;;;;;;;1.45;0.93;;;11.00;99.90;;;;;;5089853;28;20047;-81
2024/04/01 10:08:54;;;;;;;2.40;1.40;;;11.10;99.90;;;;;;5089469;28;20044;-78
2024/04/01 10:11:51;;;;;;;2.20;1.58;;;11.10;99.90;;;;;;5089875;28;20044;-78
2024/04/01 10:14:36;;;;;;;0.50;0.50;;;11.20;99.90;;;;;;5091144;28;20036;-80
2024/04/01 10:17:23;;;;;;;2.25;2.05;;;11.20;99.90;;;;;;5089170;28;20080;-79
2024/04/01 10:20:33;;;;;;;1.52;1.40;;;11.30;99.90;;;;;;5090947;28;20054;-79
2024/04/01 10:23:40;;;;;;;0.30;0.30;;;11.40;99.90;;;;;;5076871;28;20055;-79
2024/04/01 10:26:21;;;;;;;2.75;1.85;;;11.50;99.90;;;;;;5026335;28;20809;-80
2024/04/01 10:28:58;;;;;;;1.05;0.98;;;11.60;99.90;;;;;;5082074;28;20052;-80
2024/04/01 10:32:12;;;;;;;1.25;1.13;;;11.70;99.90;;;;;;5088378;28;20040;-79
2024/04/01 10:35:08;;;;;;;0.93;0.80;;;11.70;99.90;;;;;;5033256;28;20059;-80
2024/04/01 10:38:06;;;;;;;1.70;1.60;;;11.10;99.90;;;;;;5040308;28;20052;-79
2024/04/01 10:40:46;;;;;;;2.20;2.05;;;11.90;99.90;;;;;;5061607;28;20051;-79
2024/04/01 10:43:48;;;;;;;3.58;2.15;;;11.90;99.90;;;;;;5085921;28;20051;-79
2024/04/01 10:46:45;;;;;;;2.70;2.38;;;11.90;99.90;;;;;;5050267;28;20052;-79
2024/04/01 10:49:32;;;;;;;1.57;1.17;;;12.00;99.90;;;;;;5084804;28;20048;-81
2024/04/01 10:52:23;;;;;;;0.93;0.93;;;12.00;99.90;;;;;;5069148;28;20054;-80
2024/04/01 10:55:02;;;;;;;3.72;2.53;;;12.10;99.90;;;;;;5072686;28;20052;-78
2024/04/01 10:57:40;;;;;;;0.77;0.77;;;12.20;99.90;;;;;;5063667;28;20044;-79
2024/04/01 11:00:30;;;;;;;1.90;1.75;;;12.40;99.90;;;;;;5065620;28;20134;-80
2024/04/01 11:03:33;;;;;;;1.20;1.10;;;12.60;99.90;;;;;;5078340;28;20047;-78
2024/04/01 11:06:21;;;;;;;1.85;1.63;;;12.60;99.90;;;;;;5086424;28;20044;-79
2024/04/01 11:08:56;;;;;;;1.67;1.58;;;12.70;99.90;;;;;;5063399;28;20501;-79
2024/04/01 11:11:47;;;;;;;1.65;1.40;;;12.60;99.90;;;;;;5088720;28;20386;-80
2024/04/01 11:14:16;;;;;;;1.70;1.60;;;12.60;99.90;;;;;;5080363;28;20090;-79
2024/04/01 11:16:44;;;;;;;3.42;2.33;;;12.70;99.90;;;;;;5081055;28;20040;-79
2024/04/01 11:19:22;;;;;;;1.83;1.70;;;12.70;99.90;;;;;;5082549;28;20549;-79
2024/04/01 11:21:52;;;;;;;0.70;0.70;;;12.80;99.90;;;;;;5082645;28;20055;-78
2024/04/01 11:24:41;;;;;;;1.42;1.13;;;12.70;99.90;;;;;;5085687;28;20043;-80
2024/04/01 11:27:54;;;;;;;1.92;1.83;;;12.80;99.90;;;;;;5066794;28;20076;-78
2024/04/01 11:30:20;;;;;;;1.50;1.40;;;12.90;99.90;;;;;;5080836;28;20041;-78
2024/04/01 11:32:48;;;;;;;2.20;1.98;;;12.90;99.90;;;;;;5082255;28;20100;-78
2024/04/01 11:35:46;;;;;;;1.30;1.23;;;12.80;99.90;;;;;;5075586;28;20130;-79
2024/04/01 11:38:30;;;;;;;;;;;12.90;99.90;;;;;;5082144;28;20106;-78
2024/04/01 11:40:58;;;;;;;0.73;0.73;;;13.00;99.90;;;;;;5063601;28;20474;-79
2024/04/01 11:43:26;;;;;;;1.65;1.50;;;13.00;99.90;;;;;;5083433;28;20438;-79
2024/04/01 11:45:53;;;;;;;11.77;3.08;;;13.10;99.90;;;;;;5081320;28;20052;-79
2024/04/01 11:48:20;;;;;;;2.47;2.28;;;13.10;99.90;;;;;;5082471;28;20097;-78
2024/04/01 11:50:55;;;;;;;1.52;1.42;;;13.20;99.90;;;;;;5078968;28;20051;-79
2024/04/01 11:53:21;;;;;;;2.17;1.75;;;13.10;99.90;;;;;;5080984;28;20126;-79
2024/04/01 11:56:00;;;;;;;2.13;1.90;;;13.10;99.90;;;;;;5082568;28;20481;-79
2024/04/01 11:58:26;;;;;;;3.47;1.77;;;13.00;99.90;;;;;;5079034;28;20043;-78
2024/04/01 12:01:00;;;;;;;1.40;1.30;;;13.00;99.90;;;;;;5082578;28;20044;-79
2024/04/01 12:03:42;;;;;;;1.02;0.93;;;13.10;99.90;;;;;;5085966;28;20118;-80
2024/04/01 12:06:13;;;;;;;2.78;1.45;;;13.30;99.90;;;;;;5086074;28;20045;-79
2024/04/01 12:08:40;;;;;;;3.58;2.05;;;13.30;99.90;;;;;;5085675;28;20044;-79
2024/04/01 12:11:07;;;;;;;4.25;3.85;;;13.40;99.90;;;;;;5087968;28;20043;-77
2024/04/01 12:13:39;;;;;;;3.22;2.45;;;13.40;99.90;;;;;;5082470;28;20036;-78
2024/04/01 12:16:07;;;;;;;2.17;1.85;;;13.30;99.90;;;;;;5080323;28;20047;-78
2024/04/01 12:18:47;;;;;;;1.20;1.10;;;13.30;99.90;;;;;;5081743;28;20506;-80
2024/04/01 12:21:17;;;;;;;1.60;1.50;;;13.10;99.90;;;;;;5082466;28;20054;-81
2024/04/01 12:23:43;;;;;;;1.65;1.52;;;13.00;99.90;;;;;;5079055;28;20591;-79
2024/04/01 12:26:12;;;;;;;1.15;1.15;;;12.90;99.90;;;;;;5081397;28;20513;-80
2024/04/01 12:28:38;;;;;;;1.42;1.33;;;12.90;99.90;;;;;;5079605;28;20035;-81
2024/04/01 12:31:05;;;;;;;2.00;1.65;;;12.90;99.90;;;;;;5083662;28;20413;-82
2024/04/01 12:33:31;;;;;;;;;;;12.80;99.90;;;;;;5097249;28;20353;-80
2024/04/01 12:35:59;;;;;;;1.55;1.45;;;12.80;99.90;;;;;;5079309;28;19931;-79
2024/04/01 12:38:31;;;;;;;1.38;1.23;;;12.70;99.90;;;;;;5061566;28;20047;-82
2024/04/01 12:40:57;;;;;;;1.70;1.55;;;12.60;99.90;;;;;;5079967;28;20379;-83
2024/04/01 12:43:26;;;;;;;1.80;1.70;;;12.40;99.90;;;;;;5076033;28;20036;-80
2024/04/01 12:45:53;;;;;;;5.40;3.28;;;12.30;99.90;;;;;;5089650;28;20054;-82
2024/04/01 12:48:20;;;;;;;1.73;1.63;;;12.20;99.90;;;;;;5089404;28;20065;-80
2024/04/01 12:51:01;;;;;;;1.70;1.08;;;12.20;99.90;;;;;;5052774;28;20060;-81
2024/04/01 12:54:04;;;;;;;0.82;0.82;;;12.20;99.90;;;;;;5070177;28;20048;-81
2024/04/01 12:56:47;;;;;;;2.03;1.92;;;12.30;99.90;;;;;;5075958;28;20036;-80
2024/04/01 12:59:43;;;;;;;0.90;0.80;;;12.30;99.90;;;;;;5088487;28;20040;-80
2024/04/01 13:02:34;;;;;;;0.98;0.90;;;12.30;99.90;;;;;;5047776;28;20594;-79
2024/04/01 13:05:05;;;;;;;1.02;0.80;;;12.20;99.90;;;;;;5075043;28;20609;-81
2024/04/01 13:07:49;;;;;;;1.70;1.63;;;12.10;99.90;;;;;;5074742;28;20128;-81
2024/04/01 13:10:27;;;;;;;3.30;3.00;;;12.00;99.90;;;;;;5080832;28;20044;-79
2024/04/01 13:13:11;;;;;;;2.15;1.55;;;11.80;99.90;;;;;;5081670;28;20074;-79
2024/04/01 13:15:54;;;;;;;0.80;0.80;;;11.70;99.90;;;;;;5076520;28;20047;-80
2024/04/01 13:18:55;;;;;;;0.90;0.75;;;11.60;99.90;;;;;;5075548;28;20036;-80
2024/04/01 13:21:32;;;;;;;1.90;1.55;;;11.50;99.90;;;;;;5077792;28;20694;-79
2024/04/01 13:24:08;;;;;;;1.55;1.10;;;11.60;99.90;;;;;;5082759;28;20135;-79
2024/04/01 13:27:02;;;;;;;1.95;1.75;;;11.60;99.90;;;;;;5082616;28;20096;-79
2024/04/01 13:29:43;;;;;;;2.25;2.15;;;11.70;99.90;;;;;;5066573;28;20090;-79
2024/04/01 13:32:18;;;;;;;3.22;2.25;;;11.70;99.90;;;;;;5087905;28;20043;-80
2024/04/01 13:34:57;;;;;;;1.48;1.27;;;11.70;99.90;;;;;;5095534;28;20031;-78
2024/04/01 13:37:34;;;;;;;0.60;0.60;;;11.80;99.90;;;;;;5094387;28;20030;-80
2024/04/01 13:40:25;;;;;;;0.50;0.50;;;12.00;99.90;;;;;;5096655;28;20104;-79
2024/04/01 13:43:10;;;;;;;1.50;1.38;;;12.10;99.90;;;;;;5095080;28;20055;-77
2024/04/01 13:45:41;;;;;;;0.73;0.73;;;12.20;99.90;;;;;;5100678;28;20529;-76
2024/04/01 13:48:24;;;;;;;1.10;1.00;;;12.30;99.90;;;;;;5094310;28;20489;-75
2024/04/01 13:51:10;;;;;;;0.77;0.77;;;12.50;99.90;;;;;;5093989;28;20119;-78
2024/04/01 13:53:43;;;;;;;1.58;1.50;;;12.60;99.90;;;;;;5094955;28;20058;-81
2024/04/01 13:56:31;;;;;;;0.85;0.85;;;12.60;99.90;;;;;;5091266;28;20040;-78
2024/04/01 13:59:33;;;;;;;0.47;0.47;;;12.50;99.90;;;;;;5094942;28;20035;-79
2024/04/01 14:02:37;;;;;;;0.82;0.82;;;12.40;99.90;;;;;;5076059;28;20051;-77
2024/04/01 14:05:22;;;;;;;0.47;0.47;;;12.30;99.90;;;;;;5097332;28;20496;-78
2024/04/01 14:08:02;;;;;;;0.43;0.43;;;12.20;99.90;;;;;;5077180;28;20377;-79
2024/04/01 14:10:53;;;;;;;1.60;1.25;;;12.10;99.90;;;;;;5090267;28;20080;-79